Santa Fe, NM

01:55 AM MDT am 22. Oktober 2014 (GMT -0600)
Southwest Santa Fe | Change Station
CLOSE
Current Station
Persönliche Wetterstationen
Location: Santa Fe, NM
Höhe: 6634 ft
Wetterstationen in der Umgebung

Höhe 6634 ft 35.64 °N, 106.00 °W | Updated 27 seconds ago

Bedeckt
Bedeckt
50.4 °F
gefühlte 50.4 °F
N
0.0
Wind Wechselnd Wind aus Ost-Südost
Gusts 8.0 mph

Heute
Max. -- | schwach -- °F
--% Regenrisiko
Gestern
Max. -- | schwach -- °F
Precip. -- inch
7:16 AM 6:19 PM
Letztes Viertel, 3% visible
Druck 29.95 inch
Sichtweite 10.0 Meilen
Wolken Bedeckt 11000 ft
Taupunkt 47 °F
Feuchtigkeit 89%
Regen 0.00 inch
Schneehöhe Nicht verfügbar..
UV 0 von 12
Pollen 3.40 von 12
Luftqualität Nicht verfügbar..
Flu Activity Sporadic
METAR KSAF 220653Z AUTO 14006KT 10SM OVC110 11/09 A3015 RMK AO2 SLP141 T01110089 401720078

More Conditions Fewer Conditions

Druck 29.95 inch
Sichtweite 10.0 Meilen
Wolken Bedeckt 11000 ft
Taupunkt 47 °F
Feuchtigkeit 89%
Regen 0.00 inch
Schneehöhe Nicht verfügbar..
UV 0 von 12
Pollen 3.40 von 12
Luftqualität Nicht verfügbar..
Flu Activity Sporadic
METAR KSAF 220653Z AUTO 14006KT 10SM OVC110 11/09 A3015 RMK AO2 SLP141 T01110089 401720078

More Conditions Fewer Conditions

10-Day Weather Forecast

Almanac

Astronomie

Oct. 22, 2014 Aufgang Untergang
Genaue Zeit 07:16 MDT 18:19 MDT
Bürgerliche Dämmerung 06:50 MDT 18:45 MDT
Nautische Dämmerung 06:20 MDT 19:15 MDT
Astronomische Dämmerung 05:51 MDT 19:44 MDT
Mond 06:03 MDT 17:46 MDT
Länge des sichtbaren Lichts 11h 54m
Tageslänge
11h 03m
Tomorrow will be 2m 6s shorter.
Letztes Viertel, 3% of the Moon is Illuminated
Heute
Letztes Viertel
Okt 23
Neu
Okt 30
Erstes Viertel
Nov 6
Vollmond
Nov 14
Letztes Viertel

Heutige Rekorde

State Highs State Lows

Community

WunderPhotos

Upload Photos

1,763,889 Fotos hochgeladen!

Nearby

Schneehöhe

Station Depth Höhe
Santa Fe 0 in 11445 ft
Elk Cabin 1 in 8210 ft
Wesner Springs 3 in 11120 ft
Quemazon 1 in 9500 ft
Gallegos Peak 0 in 9800 ft

Erdbebenaktivität

Stadt Distance Mag. Time & Date
Trinidad, Colorado 117 Meilen 2.7 22:33 MDT
2014-10-20
Trinidad, Colorado 128 Meilen 2.5 22:01 MDT
2014-10-19
Minimum magnitude displayed is 2.5.

küstennahe Wassertemperaturen

Ort Temperatur
Kein Stationsbericht

Wetterstationen in der Umgebung